Gonzalez Chaves, Argentina
Current Conditions -  °F | °C
As of 11:00 PM on Monday 20 Oct 2014 (Local Time) from SAZM Reporting Station
Clear Clear  
Wind Chill: 57°   Ceiling: Unl
Heat Index: 57°   Visibility: 4mi
Dew Point: 52°   Wind: 9mph
Humidity: 82%   Direction: 50°NE
Pressure: 30.09"   Gusts: NA
Location:  38.04°S, 60.11°W
Report Text: SAZM 210200Z 05008KT 7000 NSC 14/11 Q1019
Loading
Personal Weather Stations






























Interactive Weather Map
Tropical Storm Tracking
New forecast layout! Learn more

10-Day Weather Forecast

Advertisements
Track Severe Weather on mobile